sensor_id;sensor_type;location;lat;lon;timestamp;P1;durP1;ratioP1;P2;durP2;ratioP2
30539;SDS011;17321;46.312;4.776;2023-01-30T00:01:03;15.98;;;8.60;;
30539;SDS011;17321;46.312;4.776;2023-01-30T00:03:29;12.73;;;8.57;;
30539;SDS011;17321;46.312;4.776;2023-01-30T00:05:55;11.45;;;8.18;;
30539;SDS011;17321;46.312;4.776;2023-01-30T00:08:21;11.90;;;8.38;;
30539;SDS011;17321;46.312;4.776;2023-01-30T00:10:48;10.27;;;7.80;;
30539;SDS011;17321;46.312;4.776;2023-01-30T00:13:14;12.98;;;8.60;;
30539;SDS011;17321;46.312;4.776;2023-01-30T00:15:40;13.00;;;9.35;;
30539;SDS011;17321;46.312;4.776;2023-01-30T00:18:07;16.63;;;8.43;;
30539;SDS011;17321;46.312;4.776;2023-01-30T00:20:33;9.65;;;7.75;;
30539;SDS011;17321;46.312;4.776;2023-01-30T00:22:59;14.63;;;9.45;;
30539;SDS011;17321;46.312;4.776;2023-01-30T00:25:26;11.88;;;8.60;;
30539;SDS011;17321;46.312;4.776;2023-01-30T00:27:52;12.40;;;8.80;;
30539;SDS011;17321;46.312;4.776;2023-01-30T00:30:18;11.45;;;8.13;;
30539;SDS011;17321;46.312;4.776;2023-01-30T00:32:44;12.70;;;8.10;;
30539;SDS011;17321;46.312;4.776;2023-01-30T00:35:10;15.43;;;8.65;;
30539;SDS011;17321;46.312;4.776;2023-01-30T00:37:36;15.75;;;8.82;;
30539;SDS011;17321;46.312;4.776;2023-01-30T00:40:02;13.75;;;8.48;;
30539;SDS011;17321;46.312;4.776;2023-01-30T00:42:29;15.30;;;8.73;;
30539;SDS011;17321;46.312;4.776;2023-01-30T00:45:14;13.02;;;9.20;;
30539;SDS011;17321;46.312;4.776;2023-01-30T00:47:59;12.70;;;9.15;;
30539;SDS011;17321;46.312;4.776;2023-01-30T00:50:25;15.13;;;9.05;;
30539;SDS011;17321;46.312;4.776;2023-01-30T00:53:07;10.35;;;7.25;;
30539;SDS011;17321;46.312;4.776;2023-01-30T00:55:33;12.55;;;8.68;;
30539;SDS011;17321;46.312;4.776;2023-01-30T00:57:59;12.45;;;8.60;;
30539;SDS011;17321;46.312;4.776;2023-01-30T01:00:25;11.45;;;7.68;;
30539;SDS011;17321;46.312;4.776;2023-01-30T01:02:52;12.05;;;8.32;;
30539;SDS011;17321;46.312;4.776;2023-01-30T01:05:18;10.60;;;7.72;;
30539;SDS011;17321;46.312;4.776;2023-01-30T01:07:44;12.40;;;7.18;;
30539;SDS011;17321;46.312;4.776;2023-01-30T01:10:10;12.95;;;8.05;;
30539;SDS011;17321;46.312;4.776;2023-01-30T01:12:41;12.10;;;8.75;;
30539;SDS011;17321;46.312;4.776;2023-01-30T01:15:07;13.55;;;8.50;;
30539;SDS011;17321;46.312;4.776;2023-01-30T01:17:34;13.27;;;8.73;;
30539;SDS011;17321;46.312;4.776;2023-01-30T01:20:00;13.95;;;8.82;;
30539;SDS011;17321;46.312;4.776;2023-01-30T01:22:26;11.98;;;8.32;;
30539;SDS011;17321;46.312;4.776;2023-01-30T01:24:52;11.38;;;8.23;;
30539;SDS011;17321;46.312;4.776;2023-01-30T01:27:18;10.13;;;7.40;;
30539;SDS011;17321;46.312;4.776;2023-01-30T01:29:44;12.23;;;8.57;;
30539;SDS011;17321;46.312;4.776;2023-01-30T01:32:10;13.52;;;8.88;;
30539;SDS011;17321;46.312;4.776;2023-01-30T01:34:36;10.95;;;7.75;;
30539;SDS011;17321;46.312;4.776;2023-01-30T01:37:02;10.18;;;7.80;;
30539;SDS011;17321;46.312;4.776;2023-01-30T01:39:28;10.27;;;7.72;;
30539;SDS011;17321;46.312;4.776;2023-01-30T01:42:15;10.07;;;7.40;;
30539;SDS011;17321;46.312;4.776;2023-01-30T01:45:00;9.60;;;7.30;;
30539;SDS011;17321;46.312;4.776;2023-01-30T01:47:28;10.80;;;7.65;;
30539;SDS011;17321;46.312;4.776;2023-01-30T01:49:55;10.57;;;8.05;;
30539;SDS011;17321;46.312;4.776;2023-01-30T01:52:21;10.55;;;7.43;;
30539;SDS011;17321;46.312;4.776;2023-01-30T01:55:06;9.65;;;7.35;;
30539;SDS011;17321;46.312;4.776;2023-01-30T01:57:51;9.90;;;7.45;;
30539;SDS011;17321;46.312;4.776;2023-01-30T02:00:19;11.60;;;7.72;;
30539;SDS011;17321;46.312;4.776;2023-01-30T02:03:20;9.38;;;7.07;;
30539;SDS011;17321;46.312;4.776;2023-01-30T02:05:42;12.95;;;8.48;;
30539;SDS011;17321;46.312;4.776;2023-01-30T02:13:22;10.52;;;7.63;;
30539;SDS011;17321;46.312;4.776;2023-01-30T02:15:49;10.80;;;7.40;;
30539;SDS011;17321;46.312;4.776;2023-01-30T02:18:15;11.98;;;6.93;;
30539;SDS011;17321;46.312;4.776;2023-01-30T02:25:56;9.27;;;6.70;;
30539;SDS011;17321;46.312;4.776;2023-01-30T02:33:29;9.95;;;7.30;;
30539;SDS011;17321;46.312;4.776;2023-01-30T02:43:40;11.38;;;6.93;;
30539;SDS011;17321;46.312;4.776;2023-01-30T02:46:17;10.63;;;7.10;;
30539;SDS011;17321;46.312;4.776;2023-01-30T02:51:36;8.38;;;6.80;;
30539;SDS011;17321;46.312;4.776;2023-01-30T02:54:06;10.77;;;7.63;;
30539;SDS011;17321;46.312;4.776;2023-01-30T02:57:14;10.27;;;7.70;;
30539;SDS011;17321;46.312;4.776;2023-01-30T02:59:31;10.02;;;6.97;;
30539;SDS011;17321;46.312;4.776;2023-01-30T03:02:04;9.52;;;6.65;;
30539;SDS011;17321;46.312;4.776;2023-01-30T03:04:38;8.13;;;6.80;;
30539;SDS011;17321;46.312;4.776;2023-01-30T03:10:00;9.60;;;6.47;;
30539;SDS011;17321;46.312;4.776;2023-01-30T03:14:59;7.32;;;6.18;;
30539;SDS011;17321;46.312;4.776;2023-01-30T03:17:28;8.07;;;6.35;;
30539;SDS011;17321;46.312;4.776;2023-01-30T03:19:54;9.60;;;6.65;;
30539;SDS011;17321;46.312;4.776;2023-01-30T03:22:20;7.80;;;6.32;;
30539;SDS011;17321;46.312;4.776;2023-01-30T03:24:47;10.52;;;6.70;;
30539;SDS011;17321;46.312;4.776;2023-01-30T03:27:14;13.27;;;6.45;;
30539;SDS011;17321;46.312;4.776;2023-01-30T03:29:40;9.68;;;6.93;;
30539;SDS011;17321;46.312;4.776;2023-01-30T03:32:06;9.07;;;6.43;;
30539;SDS011;17321;46.312;4.776;2023-01-30T03:34:32;9.50;;;6.78;;
30539;SDS011;17321;46.312;4.776;2023-01-30T03:36:58;11.93;;;6.72;;
30539;SDS011;17321;46.312;4.776;2023-01-30T03:39:24;9.75;;;6.20;;
30539;SDS011;17321;46.312;4.776;2023-01-30T03:41:51;7.60;;;6.47;;
30539;SDS011;17321;46.312;4.776;2023-01-30T03:44:18;11.35;;;6.45;;
30539;SDS011;17321;46.312;4.776;2023-01-30T03:46:44;9.63;;;6.50;;
30539;SDS011;17321;46.312;4.776;2023-01-30T03:49:10;8.70;;;6.72;;
30539;SDS011;17321;46.312;4.776;2023-01-30T03:51:37;10.40;;;7.00;;
30539;SDS011;17321;46.312;4.776;2023-01-30T03:54:03;9.52;;;7.05;;
30539;SDS011;17321;46.312;4.776;2023-01-30T03:56:29;13.38;;;7.75;;
30539;SDS011;17321;46.312;4.776;2023-01-30T03:58:55;8.80;;;6.35;;
30539;SDS011;17321;46.312;4.776;2023-01-30T04:01:21;8.77;;;6.40;;
30539;SDS011;17321;46.312;4.776;2023-01-30T04:03:47;10.90;;;6.70;;
30539;SDS011;17321;46.312;4.776;2023-01-30T04:06:14;9.45;;;6.22;;
30539;SDS011;17321;46.312;4.776;2023-01-30T04:08:40;8.82;;;6.43;;
30539;SDS011;17321;46.312;4.776;2023-01-30T04:11:06;8.73;;;6.22;;
30539;SDS011;17321;46.312;4.776;2023-01-30T04:13:32;9.40;;;6.78;;
30539;SDS011;17321;46.312;4.776;2023-01-30T04:16:14;7.40;;;6.45;;
30539;SDS011;17321;46.312;4.776;2023-01-30T04:18:41;8.43;;;5.93;;
30539;SDS011;17321;46.312;4.776;2023-01-30T04:21:07;8.50;;;6.05;;
30539;SDS011;17321;46.312;4.776;2023-01-30T04:23:33;12.68;;;6.88;;
30539;SDS011;17321;46.312;4.776;2023-01-30T04:25:59;8.60;;;5.85;;
30539;SDS011;17321;46.312;4.776;2023-01-30T04:28:26;9.68;;;6.00;;
30539;SDS011;17321;46.312;4.776;2023-01-30T04:30:52;9.27;;;6.57;;
30539;SDS011;17321;46.312;4.776;2023-01-30T04:33:18;8.75;;;6.43;;
30539;SDS011;17321;46.312;4.776;2023-01-30T04:35:53;9.32;;;7.25;;
30539;SDS011;17321;46.312;4.776;2023-01-30T04:38:20;7.38;;;6.18;;
30539;SDS011;17321;46.312;4.776;2023-01-30T04:40:47;7.70;;;6.00;;
30539;SDS011;17321;46.312;4.776;2023-01-30T04:43:13;9.30;;;6.95;;
30539;SDS011;17321;46.312;4.776;2023-01-30T04:45:42;7.38;;;5.65;;
30539;SDS011;17321;46.312;4.776;2023-01-30T04:50:34;8.65;;;6.45;;
30539;SDS011;17321;46.312;4.776;2023-01-30T04:53:00;10.82;;;6.88;;
30539;SDS011;17321;46.312;4.776;2023-01-30T04:55:26;8.68;;;6.43;;
30539;SDS011;17321;46.312;4.776;2023-01-30T04:57:52;8.98;;;5.20;;
30539;SDS011;17321;46.312;4.776;2023-01-30T05:00:19;10.52;;;6.75;;
30539;SDS011;17321;46.312;4.776;2023-01-30T05:02:45;14.38;;;6.88;;
30539;SDS011;17321;46.312;4.776;2023-01-30T05:05:11;8.63;;;6.32;;
30539;SDS011;17321;46.312;4.776;2023-01-30T05:07:37;8.02;;;6.75;;
30539;SDS011;17321;46.312;4.776;2023-01-30T05:10:03;10.85;;;6.97;;
30539;SDS011;17321;46.312;4.776;2023-01-30T05:12:29;13.55;;;7.25;;
30539;SDS011;17321;46.312;4.776;2023-01-30T05:14:55;8.85;;;6.50;;
30539;SDS011;17321;46.312;4.776;2023-01-30T05:17:21;9.95;;;7.03;;
30539;SDS011;17321;46.312;4.776;2023-01-30T05:19:48;10.35;;;7.32;;
30539;SDS011;17321;46.312;4.776;2023-01-30T05:22:14;10.30;;;7.03;;
30539;SDS011;17321;46.312;4.776;2023-01-30T05:24:40;8.85;;;7.22;;
30539;SDS011;17321;46.312;4.776;2023-01-30T05:27:06;11.02;;;8.02;;
30539;SDS011;17321;46.312;4.776;2023-01-30T05:29:32;10.57;;;8.25;;
30539;SDS011;17321;46.312;4.776;2023-01-30T05:31:58;13.90;;;8.18;;
30539;SDS011;17321;46.312;4.776;2023-01-30T05:34:24;9.07;;;6.93;;
30539;SDS011;17321;46.312;4.776;2023-01-30T05:36:50;11.60;;;8.68;;
30539;SDS011;17321;46.312;4.776;2023-01-30T05:39:16;9.93;;;7.15;;
30539;SDS011;17321;46.312;4.776;2023-01-30T05:41:42;12.18;;;8.18;;
30539;SDS011;17321;46.312;4.776;2023-01-30T05:44:08;10.30;;;7.95;;
30539;SDS011;17321;46.312;4.776;2023-01-30T05:46:35;12.13;;;8.20;;
30539;SDS011;17321;46.312;4.776;2023-01-30T05:49:01;14.52;;;9.35;;
30539;SDS011;17321;46.312;4.776;2023-01-30T05:51:28;14.30;;;9.45;;
30539;SDS011;17321;46.312;4.776;2023-01-30T05:53:54;13.68;;;8.80;;
30539;SDS011;17321;46.312;4.776;2023-01-30T05:56:21;12.32;;;8.70;;
30539;SDS011;17321;46.312;4.776;2023-01-30T05:58:51;18.23;;;8.98;;
30539;SDS011;17321;46.312;4.776;2023-01-30T06:01:17;13.75;;;9.90;;
30539;SDS011;17321;46.312;4.776;2023-01-30T06:03:43;15.60;;;9.55;;
30539;SDS011;17321;46.312;4.776;2023-01-30T06:06:10;12.68;;;9.02;;
30539;SDS011;17321;46.312;4.776;2023-01-30T06:08:36;13.82;;;9.18;;
30539;SDS011;17321;46.312;4.776;2023-01-30T06:11:06;17.35;;;9.98;;
30539;SDS011;17321;46.312;4.776;2023-01-30T06:13:33;15.68;;;11.07;;
30539;SDS011;17321;46.312;4.776;2023-01-30T06:15:59;14.18;;;9.80;;
30539;SDS011;17321;46.312;4.776;2023-01-30T06:18:26;13.52;;;9.50;;
30539;SDS011;17321;46.312;4.776;2023-01-30T06:20:52;14.98;;;10.63;;
30539;SDS011;17321;46.312;4.776;2023-01-30T06:23:18;16.20;;;10.23;;
30539;SDS011;17321;46.312;4.776;2023-01-30T06:25:45;22.30;;;12.75;;
30539;SDS011;17321;46.312;4.776;2023-01-30T06:28:12;17.60;;;11.27;;
30539;SDS011;17321;46.312;4.776;2023-01-30T06:30:38;19.75;;;11.68;;
30539;SDS011;17321;46.312;4.776;2023-01-30T06:33:04;21.20;;;11.68;;
30539;SDS011;17321;46.312;4.776;2023-01-30T06:35:30;16.50;;;11.90;;
30539;SDS011;17321;46.312;4.776;2023-01-30T06:37:56;20.55;;;12.20;;
30539;SDS011;17321;46.312;4.776;2023-01-30T06:40:23;20.13;;;12.00;;
30539;SDS011;17321;46.312;4.776;2023-01-30T06:42:49;25.92;;;15.63;;
30539;SDS011;17321;46.312;4.776;2023-01-30T06:45:16;38.50;;;22.90;;
30539;SDS011;17321;46.312;4.776;2023-01-30T06:47:52;24.67;;;15.57;;
30539;SDS011;17321;46.312;4.776;2023-01-30T06:50:19;19.60;;;12.27;;
30539;SDS011;17321;46.312;4.776;2023-01-30T06:52:46;23.85;;;14.55;;
30539;SDS011;17321;46.312;4.776;2023-01-30T06:55:13;22.35;;;13.25;;
30539;SDS011;17321;46.312;4.776;2023-01-30T06:57:40;39.47;;;23.60;;
30539;SDS011;17321;46.312;4.776;2023-01-30T07:00:07;27.55;;;16.45;;
30539;SDS011;17321;46.312;4.776;2023-01-30T07:02:34;41.33;;;23.85;;
30539;SDS011;17321;46.312;4.776;2023-01-30T07:05:01;43.63;;;25.23;;
30539;SDS011;17321;46.312;4.776;2023-01-30T07:07:27;127.60;;;75.22;;
30539;SDS011;17321;46.312;4.776;2023-01-30T07:09:53;131.82;;;70.03;;
30539;SDS011;17321;46.312;4.776;2023-01-30T07:12:19;25.90;;;16.00;;
30539;SDS011;17321;46.312;4.776;2023-01-30T07:14:46;22.85;;;13.90;;
30539;SDS011;17321;46.312;4.776;2023-01-30T07:17:12;23.83;;;14.00;;
30539;SDS011;17321;46.312;4.776;2023-01-30T07:19:39;23.17;;;14.05;;
30539;SDS011;17321;46.312;4.776;2023-01-30T07:22:05;26.75;;;16.40;;
30539;SDS011;17321;46.312;4.776;2023-01-30T07:24:31;25.67;;;14.50;;
30539;SDS011;17321;46.312;4.776;2023-01-30T07:26:57;28.08;;;15.40;;
30539;SDS011;17321;46.312;4.776;2023-01-30T07:29:23;29.77;;;17.10;;
30539;SDS011;17321;46.312;4.776;2023-01-30T07:31:49;29.38;;;15.82;;
30539;SDS011;17321;46.312;4.776;2023-01-30T07:34:16;29.67;;;18.40;;
30539;SDS011;17321;46.312;4.776;2023-01-30T07:36:42;26.05;;;16.30;;
30539;SDS011;17321;46.312;4.776;2023-01-30T07:39:08;27.90;;;17.45;;
30539;SDS011;17321;46.312;4.776;2023-01-30T07:41:34;30.23;;;17.95;;
30539;SDS011;17321;46.312;4.776;2023-01-30T07:44:01;26.00;;;17.05;;
30539;SDS011;17321;46.312;4.776;2023-01-30T07:46:27;27.40;;;16.67;;
30539;SDS011;17321;46.312;4.776;2023-01-30T07:49:02;29.52;;;16.35;;
30539;SDS011;17321;46.312;4.776;2023-01-30T07:51:28;40.97;;;20.80;;
30539;SDS011;17321;46.312;4.776;2023-01-30T07:53:54;26.77;;;16.27;;
30539;SDS011;17321;46.312;4.776;2023-01-30T07:56:21;34.22;;;19.42;;
30539;SDS011;17321;46.312;4.776;2023-01-30T07:58:47;62.35;;;33.83;;
30539;SDS011;17321;46.312;4.776;2023-01-30T08:01:13;71.38;;;38.63;;
30539;SDS011;17321;46.312;4.776;2023-01-30T08:03:40;58.63;;;36.13;;
30539;SDS011;17321;46.312;4.776;2023-01-30T08:06:07;25.45;;;15.52;;
30539;SDS011;17321;46.312;4.776;2023-01-30T08:08:33;45.00;;;28.77;;
30539;SDS011;17321;46.312;4.776;2023-01-30T08:10:59;36.50;;;22.23;;
30539;SDS011;17321;46.312;4.776;2023-01-30T08:13:26;61.33;;;39.90;;
30539;SDS011;17321;46.312;4.776;2023-01-30T08:15:52;52.47;;;35.33;;
30539;SDS011;17321;46.312;4.776;2023-01-30T08:18:18;33.60;;;20.60;;
30539;SDS011;17321;46.312;4.776;2023-01-30T08:20:44;26.70;;;15.95;;
30539;SDS011;17321;46.312;4.776;2023-01-30T08:23:10;25.00;;;15.05;;
30539;SDS011;17321;46.312;4.776;2023-01-30T08:25:36;24.42;;;16.42;;
30539;SDS011;17321;46.312;4.776;2023-01-30T08:28:02;24.98;;;16.38;;
30539;SDS011;17321;46.312;4.776;2023-01-30T08:30:29;24.52;;;16.05;;
30539;SDS011;17321;46.312;4.776;2023-01-30T08:32:56;32.70;;;21.92;;
30539;SDS011;17321;46.312;4.776;2023-01-30T08:35:22;22.45;;;15.52;;
30539;SDS011;17321;46.312;4.776;2023-01-30T08:37:48;23.17;;;14.15;;
30539;SDS011;17321;46.312;4.776;2023-01-30T08:40:14;24.02;;;15.07;;
30539;SDS011;17321;46.312;4.776;2023-01-30T08:42:44;25.80;;;17.48;;
30539;SDS011;17321;46.312;4.776;2023-01-30T08:45:10;28.63;;;17.50;;
30539;SDS011;17321;46.312;4.776;2023-01-30T08:47:36;25.95;;;16.67;;
30539;SDS011;17321;46.312;4.776;2023-01-30T08:50:03;24.17;;;16.15;;
30539;SDS011;17321;46.312;4.776;2023-01-30T08:52:31;29.10;;;15.90;;
30539;SDS011;17321;46.312;4.776;2023-01-30T08:54:57;24.05;;;15.15;;
30539;SDS011;17321;46.312;4.776;2023-01-30T08:57:23;34.58;;;19.13;;
30539;SDS011;17321;46.312;4.776;2023-01-30T08:59:49;26.60;;;16.67;;
30539;SDS011;17321;46.312;4.776;2023-01-30T09:02:16;25.58;;;16.58;;
30539;SDS011;17321;46.312;4.776;2023-01-30T09:04:42;25.88;;;16.98;;
30539;SDS011;17321;46.312;4.776;2023-01-30T09:07:08;23.42;;;15.85;;
30539;SDS011;17321;46.312;4.776;2023-01-30T09:09:34;25.80;;;16.38;;
30539;SDS011;17321;46.312;4.776;2023-01-30T09:12:00;24.73;;;16.30;;
30539;SDS011;17321;46.312;4.776;2023-01-30T09:14:27;27.33;;;17.15;;
30539;SDS011;17321;46.312;4.776;2023-01-30T09:16:53;25.20;;;15.93;;
30539;SDS011;17321;46.312;4.776;2023-01-30T09:21:48;27.92;;;17.52;;
30539;SDS011;17321;46.312;4.776;2023-01-30T09:24:15;28.30;;;17.27;;
30539;SDS011;17321;46.312;4.776;2023-01-30T09:26:41;31.35;;;18.58;;
30539;SDS011;17321;46.312;4.776;2023-01-30T09:29:12;32.55;;;18.88;;
30539;SDS011;17321;46.312;4.776;2023-01-30T09:31:38;29.48;;;18.98;;
30539;SDS011;17321;46.312;4.776;2023-01-30T09:34:05;27.63;;;17.88;;
30539;SDS011;17321;46.312;4.776;2023-01-30T09:36:31;29.10;;;17.50;;
30539;SDS011;17321;46.312;4.776;2023-01-30T09:38:57;27.95;;;18.42;;
30539;SDS011;17321;46.312;4.776;2023-01-30T09:49:16;29.13;;;18.58;;
30539;SDS011;17321;46.312;4.776;2023-01-30T09:51:51;28.17;;;17.92;;
30539;SDS011;17321;46.312;4.776;2023-01-30T09:54:30;31.67;;;18.60;;
30539;SDS011;17321;46.312;4.776;2023-01-30T09:57:09;28.65;;;18.33;;
30539;SDS011;17321;46.312;4.776;2023-01-30T09:59:50;28.70;;;17.98;;
30539;SDS011;17321;46.312;4.776;2023-01-30T10:05:08;31.15;;;18.60;;
30539;SDS011;17321;46.312;4.776;2023-01-30T10:10:33;26.48;;;17.38;;
30539;SDS011;17321;46.312;4.776;2023-01-30T10:13:07;28.60;;;18.92;;
30539;SDS011;17321;46.312;4.776;2023-01-30T10:23:10;28.63;;;17.15;;
30539;SDS011;17321;46.312;4.776;2023-01-30T10:30:34;29.17;;;16.85;;
30539;SDS011;17321;46.312;4.776;2023-01-30T10:33:04;25.98;;;16.45;;
30539;SDS011;17321;46.312;4.776;2023-01-30T10:35:33;29.85;;;16.67;;
30539;SDS011;17321;46.312;4.776;2023-01-30T10:40:40;25.05;;;17.05;;
30539;SDS011;17321;46.312;4.776;2023-01-30T10:46:01;25.77;;;17.00;;
30539;SDS011;17321;46.312;4.776;2023-01-30T10:48:42;27.75;;;18.25;;
30539;SDS011;17321;46.312;4.776;2023-01-30T10:51:28;27.05;;;18.48;;
30539;SDS011;17321;46.312;4.776;2023-01-30T10:54:10;28.90;;;18.15;;
30539;SDS011;17321;46.312;4.776;2023-01-30T10:56:39;27.20;;;17.58;;
30539;SDS011;17321;46.312;4.776;2023-01-30T10:59:19;30.73;;;17.70;;
30539;SDS011;17321;46.312;4.776;2023-01-30T11:01:51;34.15;;;17.83;;
30539;SDS011;17321;46.312;4.776;2023-01-30T11:06:47;27.60;;;17.98;;
30539;SDS011;17321;46.312;4.776;2023-01-30T11:09:13;29.38;;;18.73;;
